x

West Orca Bay - 8nm Nw Of Hinchinbrook Is , Ak (46060) Wave Buoy

2:50am - Sun 1st Mar 2015 All times are AKST. -9 hours from GMT.

  • Sig Wave height 1.0ft
  • Swell Direction
  • Peak Period 7s
  • Average Period 5s
  • Wind
    9mph, 11mph gusts
  • Sea Temp 42°f
  • Air Temp 38°f
  • Sea Pressure 1029.5mb
  • West Orca Bay - 8nm Nw Of Hinchinbrook  Is , Ak
  • West Orca Bay - 8nm Nw Of Hinchinbrook  Is , Ak

More Historic Weather Station data

Upgrade to MSW Pro to gain access to the past 30 days of data for over 8000 Wavebouys and Weather Stations around the globe.

Join Pro

Comparision Forecast

View Surf forecast
   
Sun 03/01 2:50am 1ft 7s 5s 9 11 mph 1029.5mb 42f 38f
1:50am 1ft 9s 7s 9 11 mph 1029.2mb 42f 38f
12:50am 0.7ft  -  7s 7 9 mph 1028.3mb 42f 37f
Sat 02/28 11:50pm 0.7ft  -  6s 7 9 mph 1028.3mb 42f 38f
10:50pm 0.7ft  -  5s 7 9 mph 1027.6mb 42f 37f
9:50pm 0.7ft  -  5s 7 9 mph 1027.5mb 42f 37f
8:50pm 0.3ft  -  6s 4 9 mph 1027.2mb 42f 38f
7:50pm 0.3ft  -  6s 7 9 mph 1025.9mb 42f 38f
6:50pm 0.7ft  -  5s 7 9 mph 1025.8mb 42f 38f
5:50pm 0.7ft  -  3s 7 9 mph 1025.9mb 42f 38f
4:50pm 0.7ft  -  3s 9 11 mph 1025.8mb 42f 39f
3:50pm 0.7ft  -  3s 11 13 mph 1025.8mb 42f 40f
2:50pm 0.7ft  -  4s 11
mph
1026.3mb 42f 40f
1:50pm 0.7ft  -  4s 11
mph
1026.5mb 42f 39f
12:50pm 0.7ft  -  4s 11
mph
1026.7mb 42f 39f
11:50am 0.7ft  -  4s 7 9 mph 1026.8mb 42f 39f
10:50am 0.7ft  -  3s 9
mph
1026.9mb 42f 39f
9:50am 0.7ft  -  4s 9 11 mph 1026.8mb 42f 39f
8:50am 0.7ft  -  4s 9 11 mph 1027.1mb 42f 39f
7:50am 0.7ft  -  3s 11 13 mph 1027.2mb 42f 39f
6:50am 1.3ft 9s 3s 13
mph
1027.4mb 42f 39f
5:50am 0.7ft  -  6s 16 18 mph 1027.3mb 42f 39f
4:50am 0.7ft  -  6s 9
mph
1028.2mb 42f 39f
3:50am 0.7ft  -  7s 9 11 mph 1028.3mb 42f 39f
2:50am 1ft 11s 6s 7
mph
1028.9mb 42f 39f
1:50am 1ft 11s 6s 7 9 mph 1028.9mb 42f 39f
12:50am 1ft 10s 5s 9 11 mph 1029.3mb 42f 39f
Fri 02/27 11:50pm 1ft 11s 6s 9 11 mph 1029.4mb 42f 39f
10:50pm 1ft 11s 7s 4 7 mph 1030mb 42f 39f
9:50pm 0.7ft  -  6s 2 4 mph 1030.1mb 42f 39f
8:50pm 1ft 10s 6s 4
mph
1029.9mb 42f 39f
7:50pm 1ft 10s 5s 7 9 mph 1030mb 42f 39f
6:50pm 1.3ft 11s 4s 9
mph
1030.1mb 42f 39f
5:50pm 1ft 11s 7s 4 7 mph 1030.6mb 42f 39f
4:50pm 1ft 11s 7s 2
mph
1031.2mb 42f 39f
3:50pm 1ft 10s 7s 4 7 mph 1031.4mb 42f 39f
2:50pm 1ft 11s 7s 4
mph
1031.5mb 42f 39f
1:50pm 1ft 10s 6s  -  2 mph 1031.5mb 42f 39f
12:50pm 1ft 8s 6s 2 4 mph 1031.6mb 42f 39f
11:50am 1ft 8s 6s 2 4 mph 1031.5mb 42f 39f
10:50am 1.3ft 8s 6s  -  2 mph 1031.1mb 42f 40f
9:50am 1ft 9s 6s 2 4 mph 1031.2mb 42f 38f
8:50am 1.3ft 9s 5s 2 4 mph 1030.8mb 42f 38f
7:50am 1.3ft 9s 6s 7 9 mph 1030.5mb 41f 37f
6:50am 1.3ft 9s 5s 7 9 mph 1030.7mb 42f 38f
5:50am 1.3ft 10s 6s  -  2 mph 1030.9mb 42f 38f
4:50am 1.3ft 10s 5s 4 7 mph 1031.1mb 42f 38f
3:50am 1.3ft 10s 6s 2 4 mph 1031.2mb 42f 39f
2:50am 1.3ft 11s 5s 11
mph
1031.4mb 42f 38f
1:50am 1.3ft 11s 5s 7 9 mph 1031.3mb 42f 39f
12:50am 1.6ft 11s 5s 4
mph
1031.4mb 42f 38f
Thu 02/26 11:50pm 1.6ft 11s 5s 11 13 mph 1031.3mb 42f 39f
10:50pm 1.3ft 11s 6s 11 13 mph 1031.3mb 42f 40f
9:50pm 1.6ft 10s 7s 4 7 mph 1031.1mb 42f 40f
8:50pm 1.6ft 11s 7s 7 9 mph 1031.1mb 42f 40f
7:50pm 1.6ft 11s 7s 9
mph
1030.9mb 42f 40f
6:50pm 1.6ft 11s 7s 7 9 mph 1031.1mb 42f 40f
5:50pm 1.6ft 10s 7s 7 9 mph 1031.2mb 42f 40f
4:50pm 2ft 10s 6s 9 11 mph 1031.2mb 42f 39f
3:50pm 1.3ft 10s 5s 7 9 mph 1031.2mb 42f 39f
2:50pm 1.6ft 11s 5s 11 13 mph 1031.3mb 42f 40f
1:50pm 1.3ft 11s 5s 9 11 mph 1031.2mb 42f 40f
12:50pm 1.6ft 11s 5s 4 7 mph 1031.3mb 42f 39f
11:50am 2ft 11s 4s 13 16 mph 1031mb 42f 39f
10:50am 2.5ft 11s 4s 11 13 mph 1031mb 42f 39f
9:50am 2.5ft 11s 4s 7 9 mph 1030.6mb 42f 39f
8:50am  -   -   -  9 11 mph 1030.2mb 42f 39f
7:50am 2.5ft 11s 4s 11 16 mph 1029.7mb 42f 38f
6:50am 2.5ft 11s 4s 13
mph
1029.3mb 42f 38f
5:50am 2.5ft 11s 5s 11 13 mph 1029.3mb 42f 38f
4:50am 2.5ft 11s 5s 9
mph
1029.3mb 42f 38f
3:50am 2ft 11s 5s 11 13 mph 1029.2mb 42f 38f
2:50am 2.5ft 10s 5s 11 13 mph 1029.4mb 42f 38f
1:50am 2.5ft 10s 5s 11 13 mph 1029.1mb 42f 38f
12:50am 2.5ft 10s 5s 11 13 mph 1029.1mb 42f 38f
Wed 02/25 11:50pm 2.5ft 9s 4s 18 20 mph 1028.8mb 42f 39f
10:50pm  -   -   -  13 18 mph 1028.5mb 42f 40f
9:50pm 2.5ft 11s 5s 18 20 mph 1028.4mb 42f 40f
8:50pm 2.5ft 10s 5s 11 13 mph 1028mb 42f 40f
7:50pm 3.5ft 10s 6s 13 16 mph 1027.6mb 42f 40f
6:50pm  -   -   -  18 22 mph 1027.2mb 42f 41f
5:50pm 2.5ft 11s 6s 13 18 mph 1027.1mb 42f 41f
4:50pm 2.5ft 9s 7s 9 11 mph 1027.1mb 42f 42f
3:50pm 3ft 10s 7s 9
mph
1027mb 42f 41f
2:50pm 2.5ft 9s 7s 9 11 mph 1027mb 43f 41f
1:50pm 2ft 10s 7s 7 9 mph 1027.2mb 42f 40f